METAR AND TAF INFORMATION
METAR FOR KOKC
KOKC 260252Z 00000KT 10SM FEW250 16/04 A2987 RMK AO2 SLP107 T01610039 50011 $
KOKC 260152Z 00000KT 10SM FEW250 17/03 A2987 RMK AO2 SLP110 T01720033 $
KOKC 260052Z 00000KT 10SM FEW250 19/04 A2986 RMK AO2 SLP106 T01890039 $
KOKC 252331Z 2600/2624 19007KT P6SM SCT250
FM261800 23014G22KT P6SM SCT150 BKN250

 AIRPORT MAP

 RUNWAY INFORMATION
Runway 13 Runway length 7800 ft Runway width 150 ft
Runway elevation 1279 ft Runway displaced threshold 0 ft Runway heading 135
Runway 31 Runway length 7800 ft Runway width 150 ft
Runway elevation 1286 ft Runway displaced threshold 0 ft Runway heading 315
Runway 17L Runway length 9802 ft Runway width 150 ft
Runway elevation 1286 ft Runway displaced threshold 0 ft Runway heading 180
Runway 35R Runway length 9802 ft Runway width 150 ft
Runway elevation 1283 ft Runway displaced threshold 0 ft Runway heading 360
Runway 17R Runway length 9800 ft Runway width 150 ft
Runway elevation 1282 ft Runway displaced threshold 0 ft Runway heading 180
Runway 35L Runway length 9800 ft Runway width 150 ft
Runway elevation 1263 ft Runway displaced threshold 0 ft Runway heading 360
Runway 18 Runway length 3079 ft Runway width 75 ft
Runway elevation 1275 ft Runway displaced threshold 0 ft Runway heading 180
Runway 36 Runway length 3079 ft Runway width 75 ft
Runway elevation 1271 ft Runway displaced threshold 0 ft Runway heading 360

 AIRPORT FREQUENCIES
Type A/D Name OKE CITY A Frequency 120.45 MHZ
Type ATIS Name ATIS Frequency 125.85 MHZ
Type CLD Name CLNC DEL Frequency 124.35 MHZ
Type GND Name GND Frequency 121.9 MHZ
Type OPS Name ANG OPS CO Frequency 22.56 MHZ
Type TWR Name ROGERS TWR Frequency 119.35 MHZ

 AIRPORT NEAR NAVIGATION AIDS
Type NDB Name Tuloo Frequency 406 KHZ

-